createdAt,value
2023-05-23T00:00:36.898Z,7.10
2023-05-23T00:03:45.512Z,7.00
2023-05-23T00:06:54.250Z,7.03
2023-05-23T00:10:02.951Z,7.17
2023-05-23T00:13:14.717Z,7.33
2023-05-23T00:16:23.834Z,7.77
2023-05-23T00:19:32.303Z,7.03
2023-05-23T00:22:42.213Z,7.70
2023-05-23T00:25:53.429Z,7.27
2023-05-23T00:29:03.364Z,7.07
2023-05-23T00:32:12.284Z,8.47
2023-05-23T00:35:21.101Z,7.40
2023-05-23T00:38:29.743Z,7.17
2023-05-23T00:41:37.891Z,6.77
2023-05-23T00:44:48.416Z,7.53
2023-05-23T00:47:59.178Z,6.97
2023-05-23T00:51:07.545Z,8.57
2023-05-23T00:54:19.049Z,7.67
2023-05-23T00:57:29.470Z,8.30
2023-05-23T01:00:39.838Z,8.57
2023-05-23T01:03:48.802Z,8.47
2023-05-23T01:06:57.945Z,7.77
2023-05-23T01:10:07.561Z,7.67
2023-05-23T01:13:35.590Z,7.63
2023-05-23T01:16:56.786Z,8.53
2023-05-23T01:20:12.754Z,7.47
2023-05-23T01:24:03.836Z,7.77
2023-05-23T01:27:31.657Z,6.73
2023-05-23T01:30:45.760Z,8.60
2023-05-23T01:33:55.969Z,7.33
2023-05-23T01:37:10.750Z,7.60
2023-05-23T01:40:19.905Z,7.60
2023-05-23T01:43:28.961Z,7.37
2023-05-23T01:46:41.961Z,7.57
2023-05-23T01:49:51.680Z,7.90
2023-05-23T01:53:02.025Z,7.07
2023-05-23T01:56:10.610Z,7.97
2023-05-23T01:59:19.504Z,6.80
2023-05-23T02:02:30.144Z,7.50
2023-05-23T02:05:38.495Z,7.20
2023-05-23T02:08:46.727Z,7.77
2023-05-23T02:11:55.472Z,7.40
2023-05-23T02:15:04.403Z,7.00
2023-05-23T02:18:14.288Z,6.57
2023-05-23T02:21:25.244Z,7.50
2023-05-23T02:24:33.502Z,7.07
2023-05-23T02:27:41.872Z,7.73
2023-05-23T02:30:50.586Z,8.10
2023-05-23T02:34:00.212Z,7.47
2023-05-23T02:37:08.557Z,8.07
2023-05-23T02:40:18.936Z,7.87
2023-05-23T02:43:28.906Z,7.70
2023-05-23T02:46:37.143Z,7.37
2023-05-23T02:49:47.722Z,8.00
2023-05-23T02:52:56.301Z,7.87
2023-05-23T02:56:04.640Z,8.50
2023-05-23T02:59:13.709Z,8.60
2023-05-23T03:02:22.746Z,8.43
2023-05-23T03:05:32.580Z,8.40
2023-05-23T03:08:41.317Z,8.10
2023-05-23T03:11:49.722Z,8.63
2023-05-23T03:14:58.406Z,8.20
2023-05-23T03:18:07.112Z,8.30
2023-05-23T03:21:17.057Z,8.73
2023-05-23T03:24:26.105Z,7.53
2023-05-23T03:27:34.526Z,9.10
2023-05-23T03:30:43.208Z,8.47
2023-05-23T03:33:53.792Z,8.73
2023-05-23T03:37:03.495Z,9.87
2023-05-23T03:40:12.686Z,8.70
2023-05-23T03:43:21.571Z,9.03
2023-05-23T03:46:30.871Z,8.73
2023-05-23T03:49:39.473Z,8.77
2023-05-23T03:52:49.150Z,7.80
2023-05-23T03:55:57.732Z,8.10
2023-05-23T03:59:07.052Z,8.60
2023-05-23T04:02:15.813Z,8.83
2023-05-23T04:05:24.550Z,8.83
2023-05-23T04:08:35.582Z,8.40
2023-05-23T04:11:44.193Z,9.40
2023-05-23T04:14:52.662Z,8.23
2023-05-23T04:18:01.217Z,8.43
2023-05-23T04:21:09.633Z,8.57
2023-05-23T04:24:26.482Z,7.63
2023-05-23T04:27:36.345Z,7.43
2023-05-23T04:30:46.313Z,7.60
2023-05-23T04:33:56.401Z,8.23
2023-05-23T04:37:04.925Z,7.57
2023-05-23T04:40:16.241Z,7.77
2023-05-23T04:43:42.525Z,8.20
2023-05-23T04:46:59.129Z,8.47
2023-05-23T04:50:26.187Z,7.83
2023-05-23T04:53:36.917Z,8.20
2023-05-23T04:56:46.959Z,8.87
2023-05-23T04:59:57.451Z,8.30
2023-05-23T05:03:09.784Z,8.37
2023-05-23T05:06:21.654Z,8.60
2023-05-23T05:09:31.556Z,9.27
2023-05-23T05:12:41.215Z,9.57
2023-05-23T05:15:49.677Z,9.43
2023-05-23T05:18:59.208Z,9.87
2023-05-23T05:22:07.985Z,8.97
2023-05-23T05:25:16.667Z,9.87
2023-05-23T05:28:26.172Z,10.60
2023-05-23T05:31:35.957Z,9.87
2023-05-23T05:34:46.433Z,9.33
2023-05-23T05:37:55.990Z,9.60
2023-05-23T05:41:08.920Z,9.87
2023-05-23T05:44:22.171Z,9.67
2023-05-23T05:47:30.911Z,10.53
2023-05-23T05:50:39.972Z,10.60
2023-05-23T05:53:49.602Z,10.33
2023-05-23T05:56:58.419Z,10.40
2023-05-23T06:00:14.935Z,10.77
2023-05-23T06:03:34.260Z,9.67
2023-05-23T06:06:42.954Z,10.23
2023-05-23T06:09:51.581Z,10.00
2023-05-23T06:13:00.768Z,9.40
2023-05-23T06:16:10.748Z,9.57
2023-05-23T06:19:19.078Z,9.10
2023-05-23T06:22:27.718Z,8.90
2023-05-23T06:25:36.246Z,9.00
2023-05-23T06:28:44.390Z,8.27
2023-05-23T06:31:54.017Z,8.43
2023-05-23T06:35:02.180Z,9.30
2023-05-23T06:38:10.592Z,9.67
2023-05-23T06:41:19.261Z,10.03
2023-05-23T06:44:27.543Z,8.90
2023-05-23T06:47:37.396Z,10.00
2023-05-23T06:50:45.791Z,9.27
2023-05-23T06:53:56.476Z,8.97
2023-05-23T06:57:05.062Z,8.50
2023-05-23T07:00:15.385Z,8.73
2023-05-23T07:03:41.683Z,8.60
2023-05-23T07:06:52.669Z,7.57
2023-05-23T07:10:01.798Z,9.90
2023-05-23T07:13:10.608Z,8.23
2023-05-23T07:16:19.670Z,8.53
2023-05-23T07:19:42.976Z,8.73
2023-05-23T07:22:51.864Z,8.80
2023-05-23T07:26:03.085Z,9.47
2023-05-23T07:29:24.089Z,9.20
2023-05-23T07:32:34.437Z,8.33
2023-05-23T07:35:46.350Z,9.73
2023-05-23T07:38:54.939Z,7.93
2023-05-23T07:42:03.192Z,8.70
2023-05-23T07:45:13.104Z,8.87
2023-05-23T07:48:24.175Z,11.17
2023-05-23T07:51:33.952Z,9.90
2023-05-23T07:54:42.657Z,11.00
2023-05-23T07:57:52.643Z,12.17
2023-05-23T08:01:03.595Z,12.70
2023-05-23T08:04:35.000Z,13.23
2023-05-23T08:07:47.291Z,13.27
2023-05-23T08:10:56.492Z,12.63
2023-05-23T08:14:10.638Z,13.17
2023-05-23T08:17:18.914Z,12.67
2023-05-23T08:20:31.073Z,12.87
2023-05-23T08:23:44.675Z,13.63
2023-05-23T08:26:53.031Z,13.70
2023-05-23T08:30:03.904Z,13.33
2023-05-23T08:33:12.834Z,13.43
2023-05-23T08:36:23.973Z,12.03
2023-05-23T08:39:33.797Z,14.20
2023-05-23T08:43:05.872Z,15.13
2023-05-23T08:46:16.501Z,13.13
2023-05-23T08:49:25.620Z,13.67
2023-05-23T08:52:36.338Z,14.17
2023-05-23T08:55:47.601Z,13.40
2023-05-23T08:58:57.378Z,12.87
2023-05-23T09:02:13.161Z,13.77
2023-05-23T09:05:22.764Z,13.10
2023-05-23T09:08:32.162Z,13.67
2023-05-23T09:11:46.100Z,12.47
2023-05-23T09:14:56.351Z,13.73
2023-05-23T09:18:06.749Z,14.00
2023-05-23T09:21:16.046Z,13.80
2023-05-23T09:24:43.047Z,13.83
2023-05-23T09:27:56.309Z,14.00
2023-05-23T09:31:08.844Z,13.73
2023-05-23T09:34:17.521Z,13.73
2023-05-23T09:37:32.932Z,13.97
2023-05-23T09:40:46.628Z,13.40
2023-05-23T09:43:56.493Z,13.57
2023-05-23T09:47:08.645Z,13.47
2023-05-23T09:50:18.247Z,13.20
2023-05-23T09:53:27.510Z,12.63
2023-05-23T09:56:42.002Z,13.03
2023-05-23T09:59:55.326Z,13.53
2023-05-23T10:03:12.649Z,13.70
2023-05-23T10:06:28.201Z,13.03
2023-05-23T10:09:41.781Z,14.10
2023-05-23T10:12:56.517Z,14.03
2023-05-23T10:16:17.075Z,13.03
2023-05-23T10:19:28.284Z,13.77
2023-05-23T10:22:38.269Z,15.30
2023-05-23T10:25:47.770Z,14.07
2023-05-23T10:28:58.657Z,16.53
2023-05-23T10:32:10.866Z,15.70
2023-05-23T10:35:31.677Z,16.40
2023-05-23T10:38:52.002Z,16.60
2023-05-23T10:42:07.229Z,15.93
2023-05-23T10:45:20.903Z,15.70
2023-05-23T10:48:37.354Z,15.53
2023-05-23T10:51:51.220Z,15.33
2023-05-23T10:55:00.522Z,18.03
2023-05-23T10:58:16.527Z,16.93
2023-05-23T11:01:25.644Z,17.20
2023-05-23T11:04:36.162Z,15.63
2023-05-23T11:07:44.621Z,17.37
2023-05-23T11:11:00.034Z,16.40
2023-05-23T11:14:08.293Z,16.30
2023-05-23T11:17:18.455Z,17.80
2023-05-23T11:20:30.615Z,17.20
2023-05-23T11:23:43.062Z,17.17
2023-05-23T11:27:00.147Z,17.67
2023-05-23T11:30:13.530Z,16.93
2023-05-23T11:33:22.321Z,15.27
2023-05-23T11:36:32.555Z,15.83
2023-05-23T11:39:41.126Z,17.63
2023-05-23T11:42:49.328Z,16.40
2023-05-23T11:45:57.585Z,15.70
2023-05-23T11:49:13.172Z,15.60
2023-05-23T11:52:23.068Z,15.37
2023-05-23T11:55:31.698Z,13.53
2023-05-23T11:58:41.716Z,13.63
2023-05-23T12:01:50.166Z,12.80
2023-05-23T12:04:58.560Z,12.90
2023-05-23T12:08:08.617Z,11.27
2023-05-23T12:11:16.932Z,10.90
2023-05-23T12:14:25.458Z,11.60
2023-05-23T12:17:34.822Z,11.70
2023-05-23T12:20:43.713Z,11.27
2023-05-23T12:23:53.484Z,11.37
2023-05-23T12:27:04.148Z,11.23
2023-05-23T12:30:16.448Z,10.90
2023-05-23T12:33:24.868Z,10.77
2023-05-23T12:36:36.224Z,10.20
2023-05-23T12:39:49.632Z,9.57
2023-05-23T12:42:59.812Z,10.13
2023-05-23T12:46:08.771Z,9.77
2023-05-23T12:49:17.054Z,9.97
2023-05-23T12:52:25.677Z,10.37
2023-05-23T12:55:35.270Z,11.97
2023-05-23T12:58:44.323Z,12.03
2023-05-23T13:01:52.934Z,11.43
2023-05-23T13:05:01.267Z,12.43
2023-05-23T13:08:09.488Z,10.10
2023-05-23T13:11:19.900Z,9.37
2023-05-23T13:14:28.138Z,10.70
2023-05-23T13:17:36.511Z,9.80
2023-05-23T13:20:45.352Z,9.77
2023-05-23T13:23:53.825Z,11.03
2023-05-23T13:27:03.495Z,10.67
2023-05-23T13:30:12.847Z,11.43
2023-05-23T13:33:22.124Z,10.20
2023-05-23T13:36:30.579Z,10.73
2023-05-23T13:39:39.120Z,10.83
2023-05-23T13:42:51.907Z,8.77
2023-05-23T13:46:02.034Z,6.80
2023-05-23T13:49:10.406Z,5.63
2023-05-23T13:52:19.558Z,5.53
2023-05-23T13:55:28.579Z,5.97
2023-05-23T13:58:40.814Z,5.40
2023-05-23T14:01:49.522Z,5.97
2023-05-23T14:04:58.468Z,6.27
2023-05-23T14:08:07.112Z,5.60
2023-05-23T14:11:15.308Z,5.40
2023-05-23T14:14:26.933Z,5.90
2023-05-23T14:17:35.191Z,6.67
2023-05-23T14:20:43.786Z,5.83
2023-05-23T14:23:52.087Z,6.33
2023-05-23T14:27:00.690Z,6.80
2023-05-23T14:30:12.534Z,6.27
2023-05-23T14:33:20.944Z,6.00
2023-05-23T14:36:29.834Z,5.97
2023-05-23T14:39:38.132Z,5.73
2023-05-23T14:42:46.532Z,6.00
2023-05-23T14:45:56.224Z,5.00
2023-05-23T14:49:04.900Z,5.37
2023-05-23T14:52:14.160Z,4.90
2023-05-23T14:55:22.846Z,4.30
2023-05-23T14:58:31.288Z,3.97
2023-05-23T15:01:41.744Z,3.80
2023-05-23T15:04:50.585Z,3.70
2023-05-23T15:07:58.963Z,3.40
2023-05-23T15:11:09.721Z,4.80
2023-05-23T15:14:18.698Z,5.13
2023-05-23T15:17:28.759Z,4.90
2023-05-23T15:20:38.131Z,5.60
2023-05-23T15:23:50.241Z,5.53
2023-05-23T15:27:11.729Z,5.40
2023-05-23T15:30:27.189Z,6.33
2023-05-23T15:33:37.371Z,6.60
2023-05-23T15:36:46.393Z,7.30
2023-05-23T15:39:55.015Z,7.13
2023-05-23T15:43:03.929Z,7.83
2023-05-23T15:46:12.630Z,7.37
2023-05-23T15:49:26.599Z,8.10
2023-05-23T15:52:35.803Z,9.67
2023-05-23T15:55:44.418Z,9.17
2023-05-23T15:58:52.928Z,10.57
2023-05-23T16:02:05.436Z,9.60
2023-05-23T16:05:15.493Z,9.70
2023-05-23T16:08:24.351Z,9.17
2023-05-23T16:11:32.828Z,9.60
2023-05-23T16:14:41.276Z,9.50
2023-05-23T16:17:49.522Z,9.70
2023-05-23T16:20:59.154Z,10.53
2023-05-23T16:24:07.685Z,10.27
2023-05-23T16:27:16.282Z,10.23
2023-05-23T16:30:27.821Z,10.00
2023-05-23T16:33:36.334Z,10.57
2023-05-23T16:36:47.186Z,10.83
2023-05-23T16:39:56.322Z,10.80
2023-05-23T16:43:05.068Z,10.50
2023-05-23T16:46:13.769Z,9.57
2023-05-23T16:49:22.654Z,9.57
2023-05-23T16:52:33.983Z,9.57
2023-05-23T16:55:43.150Z,8.87
2023-05-23T16:58:55.378Z,9.97
2023-05-23T17:02:04.519Z,9.93
2023-05-23T17:05:13.438Z,9.50
2023-05-23T17:08:23.570Z,10.40
2023-05-23T17:11:32.220Z,10.47
2023-05-23T17:14:40.536Z,9.83
2023-05-23T17:17:49.159Z,8.73
2023-05-23T17:20:57.668Z,9.83
2023-05-23T17:24:07.946Z,8.60
2023-05-23T17:27:16.405Z,9.13
2023-05-23T17:30:25.802Z,9.47
2023-05-23T17:33:34.263Z,9.77
2023-05-23T17:36:43.100Z,9.77
2023-05-23T17:39:54.605Z,8.87
2023-05-23T17:43:05.607Z,8.90
2023-05-23T17:46:14.904Z,7.43
2023-05-23T17:49:23.898Z,9.37
2023-05-23T17:52:32.500Z,8.87
2023-05-23T17:55:42.570Z,7.40
2023-05-23T17:58:50.917Z,6.00
2023-05-23T18:01:59.906Z,4.10
2023-05-23T18:05:10.519Z,3.10
2023-05-23T18:08:19.215Z,3.00
2023-05-23T18:11:30.394Z,2.30
2023-05-23T18:14:39.962Z,2.37
2023-05-23T18:17:51.497Z,2.43
2023-05-23T18:20:59.854Z,2.60
2023-05-23T18:24:09.102Z,2.53
2023-05-23T18:27:19.071Z,2.60
2023-05-23T18:30:28.401Z,2.40
2023-05-23T18:33:37.140Z,2.30
2023-05-23T18:36:45.835Z,2.30
2023-05-23T18:39:57.989Z,2.23
2023-05-23T18:43:07.976Z,2.00
2023-05-23T18:46:17.258Z,2.13
2023-05-23T18:49:26.432Z,2.20
2023-05-23T18:52:37.281Z,1.73
2023-05-23T18:55:46.353Z,1.77
2023-05-23T18:58:56.283Z,1.77
2023-05-23T19:02:05.791Z,1.47
2023-05-23T19:05:15.218Z,1.83
2023-05-23T19:08:23.804Z,1.53
2023-05-23T19:11:32.394Z,2.03
2023-05-23T19:14:42.338Z,1.63
2023-05-23T19:17:50.976Z,2.00
2023-05-23T19:20:59.961Z,1.80
2023-05-23T19:24:09.208Z,1.77
2023-05-23T19:27:17.529Z,1.90
2023-05-23T19:30:27.400Z,1.80
2023-05-23T19:33:36.381Z,1.80
2023-05-23T19:36:45.047Z,2.00
2023-05-23T19:39:53.672Z,1.83
2023-05-23T19:43:02.441Z,1.70
2023-05-23T19:46:13.682Z,1.50
2023-05-23T19:49:21.987Z,1.90
2023-05-23T19:52:30.200Z,1.40
2023-05-23T19:55:39.006Z,1.60
2023-05-23T19:58:47.276Z,1.63
2023-05-23T20:01:57.220Z,2.00
2023-05-23T20:05:11.406Z,1.67
2023-05-23T20:08:19.880Z,1.80
2023-05-23T20:11:29.117Z,1.60
2023-05-23T20:14:37.735Z,1.80
2023-05-23T20:17:47.676Z,1.47
2023-05-23T20:20:56.421Z,1.40
2023-05-23T20:24:05.265Z,1.70
2023-05-23T20:27:14.001Z,2.00
2023-05-23T20:30:23.068Z,1.67
2023-05-23T20:33:34.308Z,1.57
2023-05-23T20:36:42.625Z,2.00
2023-05-23T20:39:52.353Z,1.80
2023-05-23T20:43:04.803Z,2.10
2023-05-23T20:46:14.618Z,2.20
2023-05-23T20:49:24.879Z,2.20
2023-05-23T20:52:33.354Z,1.97
2023-05-23T20:55:42.628Z,2.00
2023-05-23T20:58:51.146Z,1.93
2023-05-23T21:01:59.486Z,2.20
2023-05-23T21:05:11.866Z,2.23
2023-05-23T21:08:21.145Z,1.90
2023-05-23T21:11:29.783Z,2.00
2023-05-23T21:14:38.236Z,2.03
2023-05-23T21:17:47.551Z,1.93
2023-05-23T21:20:57.352Z,2.07
2023-05-23T21:24:06.502Z,2.17
2023-05-23T21:27:15.096Z,2.20
2023-05-23T21:30:25.119Z,2.30
2023-05-23T21:33:34.635Z,2.27
2023-05-23T21:36:44.335Z,2.20
2023-05-23T21:39:53.104Z,1.90
2023-05-23T21:43:01.457Z,2.10
2023-05-23T21:46:09.889Z,2.17
2023-05-23T21:49:18.225Z,2.10
2023-05-23T21:52:27.911Z,2.70
2023-05-23T21:55:36.185Z,2.87
2023-05-23T21:58:44.428Z,2.47
2023-05-23T22:01:52.900Z,2.90
2023-05-23T22:05:01.653Z,2.70
2023-05-23T22:08:13.819Z,2.77
2023-05-23T22:11:22.051Z,2.40
2023-05-23T22:14:30.355Z,2.43
2023-05-23T22:17:43.355Z,2.00
2023-05-23T22:20:51.723Z,2.80
2023-05-23T22:24:01.800Z,2.27
2023-05-23T22:27:10.116Z,2.07
2023-05-23T22:30:18.931Z,2.70
2023-05-23T22:33:27.122Z,2.67
2023-05-23T22:36:36.657Z,2.60
2023-05-23T22:39:46.406Z,3.27
2023-05-23T22:42:54.930Z,2.67
2023-05-23T22:46:03.647Z,2.60
2023-05-23T22:49:12.007Z,2.30
2023-05-23T22:52:20.464Z,2.43
2023-05-23T22:55:30.391Z,2.83
2023-05-23T22:58:38.609Z,2.60
2023-05-23T23:01:47.254Z,2.87
2023-05-23T23:04:55.930Z,3.37
2023-05-23T23:08:04.745Z,3.00
2023-05-23T23:11:14.770Z,2.80
2023-05-23T23:14:23.044Z,3.50
2023-05-23T23:17:31.320Z,3.60
2023-05-23T23:20:39.891Z,3.20
2023-05-23T23:23:48.125Z,3.23
2023-05-23T23:26:58.201Z,3.03
2023-05-23T23:30:08.289Z,3.63
2023-05-23T23:33:16.764Z,3.50
2023-05-23T23:36:25.101Z,3.27
2023-05-23T23:39:33.529Z,3.10
2023-05-23T23:42:43.341Z,3.70
2023-05-23T23:45:53.763Z,3.53
2023-05-23T23:49:02.042Z,3.73
2023-05-23T23:52:10.556Z,3.80
2023-05-23T23:55:19.092Z,3.70
2023-05-23T23:58:29.200Z,3.57
